createdAt,value
2018-05-11T00:01:07.640Z,23.83
2018-05-11T00:03:33.617Z,23.83
2018-05-11T00:05:59.602Z,23.83
2018-05-11T00:08:25.588Z,23.83
2018-05-11T00:10:51.578Z,23.82
2018-05-11T00:13:17.552Z,23.83
2018-05-11T00:15:43.534Z,23.82
2018-05-11T00:18:09.517Z,23.82
2018-05-11T00:20:35.500Z,23.82
2018-05-11T00:23:01.481Z,23.81
2018-05-11T00:25:27.458Z,23.81
2018-05-11T00:27:53.473Z,23.81
2018-05-11T00:30:19.455Z,23.81
2018-05-11T00:32:45.470Z,23.81
2018-05-11T00:35:11.472Z,23.80
2018-05-11T00:37:37.446Z,23.80
2018-05-11T00:40:03.398Z,23.79
2018-05-11T00:42:29.374Z,23.80
2018-05-11T00:44:55.377Z,23.80
2018-05-11T00:47:21.364Z,23.80
2018-05-11T00:49:47.377Z,23.79
2018-05-11T00:52:13.358Z,23.79
2018-05-11T00:54:39.341Z,23.79
2018-05-11T00:57:05.306Z,23.80
2018-05-11T00:59:31.295Z,23.79
2018-05-11T01:01:57.270Z,23.79
2018-05-11T01:04:23.257Z,23.79
2018-05-11T01:06:49.290Z,23.78
2018-05-11T01:09:15.278Z,23.78
2018-05-11T01:11:41.251Z,23.78
2018-05-11T01:14:07.235Z,23.78
2018-05-11T01:16:33.209Z,23.78
2018-05-11T01:18:59.223Z,23.77
2018-05-11T01:21:25.171Z,23.77
2018-05-11T01:23:51.158Z,23.77
2018-05-11T01:26:17.182Z,23.77
2018-05-11T01:28:43.142Z,23.76
2018-05-11T01:31:09.115Z,23.77
2018-05-11T01:33:35.105Z,23.76
2018-05-11T01:36:01.084Z,23.77
2018-05-11T01:38:27.067Z,23.77
2018-05-11T01:40:53.099Z,23.77
2018-05-11T01:43:19.051Z,23.76
2018-05-11T01:45:45.035Z,23.75
2018-05-11T01:48:11.018Z,23.75
2018-05-11T01:50:37.005Z,23.75
2018-05-11T01:53:03.007Z,23.75
2018-05-11T01:55:29.029Z,23.74
2018-05-11T01:57:54.984Z,23.74
2018-05-11T02:00:20.963Z,23.74
2018-05-11T02:02:46.954Z,23.74
2018-05-11T02:05:12.971Z,23.74
2018-05-11T02:07:38.911Z,23.74
2018-05-11T02:10:04.899Z,23.74
2018-05-11T02:12:30.936Z,23.73
2018-05-11T02:14:56.890Z,23.73
2018-05-11T02:17:22.869Z,23.73
2018-05-11T02:19:48.858Z,23.73
2018-05-11T02:22:14.841Z,23.72
2018-05-11T02:24:40.815Z,23.73
2018-05-11T02:27:06.810Z,23.73
2018-05-11T02:29:32.786Z,23.72
2018-05-11T02:31:58.783Z,23.72
2018-05-11T02:34:24.776Z,23.72
2018-05-11T02:36:50.780Z,23.72
2018-05-11T02:39:16.753Z,23.71
2018-05-11T02:41:42.783Z,23.71
2018-05-11T02:44:08.764Z,23.70
2018-05-11T02:46:34.754Z,23.71
2018-05-11T02:49:00.815Z,23.71
2018-05-11T02:51:26.768Z,23.70
2018-05-11T02:53:52.744Z,23.70
2018-05-11T02:56:18.762Z,23.70
2018-05-11T02:58:44.740Z,23.70
2018-05-11T03:01:10.734Z,23.70
2018-05-11T03:03:36.726Z,23.69
2018-05-11T03:06:02.705Z,23.69
2018-05-11T03:08:28.689Z,23.69
2018-05-11T03:10:54.680Z,23.69
2018-05-11T03:13:20.664Z,23.69
2018-05-11T03:15:46.721Z,23.69
2018-05-11T03:18:12.697Z,23.69
2018-05-11T03:20:38.639Z,23.68
2018-05-11T03:23:04.615Z,23.68
2018-05-11T03:25:30.612Z,23.68
2018-05-11T03:27:56.576Z,23.68
2018-05-11T03:30:22.551Z,23.67
2018-05-11T03:32:48.544Z,23.68
2018-05-11T03:35:14.523Z,23.67
2018-05-11T03:37:40.518Z,23.67
2018-05-11T03:40:06.498Z,23.67
2018-05-11T03:42:32.524Z,23.67
2018-05-11T03:44:58.466Z,23.67
2018-05-11T03:47:24.489Z,23.67
2018-05-11T03:49:50.435Z,23.67
2018-05-11T03:52:16.424Z,23.67
2018-05-11T03:54:42.440Z,23.66
2018-05-11T03:57:08.386Z,23.66
2018-05-11T03:59:34.443Z,23.67
2018-05-11T04:02:00.399Z,23.68
2018-05-11T04:04:26.383Z,23.66
2018-05-11T04:06:52.401Z,23.66
2018-05-11T04:09:18.383Z,23.66
2018-05-11T04:11:44.410Z,23.66
2018-05-11T04:14:10.390Z,23.66
2018-05-11T04:16:36.376Z,23.66
2018-05-11T04:19:02.331Z,23.66
2018-05-11T04:21:28.341Z,23.66
2018-05-11T04:23:54.324Z,23.66
2018-05-11T04:26:20.304Z,23.66
2018-05-11T04:28:46.265Z,23.66
2018-05-11T04:31:12.256Z,23.65
2018-05-11T04:33:38.274Z,23.65
2018-05-11T04:36:04.237Z,23.64
2018-05-11T04:38:30.251Z,23.63
2018-05-11T04:40:56.203Z,23.62
2018-05-11T04:43:22.177Z,23.62
2018-05-11T04:45:48.154Z,23.62
2018-05-11T04:48:16.411Z,23.63
2018-05-11T04:50:42.432Z,23.63
2018-05-11T04:53:08.458Z,23.64
2018-05-11T04:55:34.400Z,23.64
2018-05-11T04:58:00.448Z,23.65
2018-05-11T05:00:26.436Z,23.64
2018-05-11T05:02:52.415Z,23.64
2018-05-11T05:05:18.396Z,23.64
2018-05-11T05:07:44.385Z,23.64
2018-05-11T05:10:10.365Z,23.64
2018-05-11T05:12:36.349Z,23.66
2018-05-11T05:15:02.327Z,23.67
2018-05-11T05:17:28.317Z,23.67
2018-05-11T05:19:54.308Z,23.67
2018-05-11T05:22:20.306Z,23.70
2018-05-11T05:24:46.340Z,23.72
2018-05-11T05:27:12.300Z,23.72
2018-05-11T05:29:38.314Z,23.72
2018-05-11T05:32:04.337Z,23.75
2018-05-11T05:34:30.318Z,23.72
2018-05-11T05:36:56.380Z,23.70
2018-05-11T05:39:22.425Z,23.68
2018-05-11T05:41:48.409Z,23.67
2018-05-11T05:44:14.360Z,23.67
2018-05-11T05:46:40.366Z,23.67
2018-05-11T05:49:06.392Z,23.68
2018-05-11T05:51:32.391Z,23.67
2018-05-11T05:53:58.442Z,23.68
2018-05-11T05:56:24.428Z,23.67
2018-05-11T05:58:50.451Z,23.69
2018-05-11T06:01:16.443Z,23.70
2018-05-11T06:03:42.451Z,23.70
2018-05-11T06:06:08.434Z,23.72
2018-05-11T06:08:34.421Z,23.71
2018-05-11T06:11:00.398Z,23.71
2018-05-11T06:13:26.381Z,23.70
2018-05-11T06:15:52.371Z,23.72
2018-05-11T06:18:18.410Z,23.71
2018-05-11T06:20:44.417Z,23.71
2018-05-11T06:23:10.378Z,23.72
2018-05-11T06:25:36.353Z,23.72
2018-05-11T06:28:02.345Z,23.72
2018-05-11T06:30:28.347Z,23.70
2018-05-11T06:32:54.327Z,23.71
2018-05-11T06:35:20.308Z,23.74
2018-05-11T06:37:46.326Z,23.72
2018-05-11T06:40:12.309Z,23.71
2018-05-11T06:42:38.318Z,23.72
2018-05-11T06:45:04.275Z,23.69
2018-05-11T06:47:30.261Z,23.70
2018-05-11T06:49:56.273Z,23.70
2018-05-11T06:52:22.301Z,23.69
2018-05-11T06:54:48.261Z,23.70
2018-05-11T06:57:14.396Z,23.69
2018-05-11T06:59:40.405Z,23.68
2018-05-11T07:02:06.412Z,23.68
2018-05-11T07:04:32.394Z,23.67
2018-05-11T07:06:58.377Z,23.67
2018-05-11T07:09:24.367Z,23.67
2018-05-11T07:11:50.384Z,23.67
2018-05-11T07:14:16.344Z,23.66
2018-05-11T07:16:42.331Z,23.66
2018-05-11T07:19:08.306Z,23.66
2018-05-11T07:21:34.291Z,23.65
2018-05-11T07:24:00.271Z,23.65
2018-05-11T07:26:26.283Z,23.66
2018-05-11T07:28:52.269Z,23.66
2018-05-11T07:31:18.233Z,23.66
2018-05-11T07:33:44.229Z,23.65
2018-05-11T07:36:10.247Z,23.65
2018-05-11T07:38:36.200Z,23.64
2018-05-11T07:41:02.216Z,23.64
2018-05-11T07:43:28.308Z,23.64
2018-05-11T07:45:54.178Z,23.64
2018-05-11T07:48:20.159Z,23.64
2018-05-11T07:50:46.172Z,23.65
2018-05-11T07:53:12.154Z,23.64
2018-05-11T07:55:38.177Z,23.64
2018-05-11T07:58:04.172Z,23.64
2018-05-11T08:00:30.158Z,23.63
2018-05-11T08:02:56.166Z,23.64
2018-05-11T08:05:22.111Z,23.64
2018-05-11T08:07:48.093Z,23.64
2018-05-11T08:10:14.057Z,23.64
2018-05-11T08:12:40.041Z,23.64
2018-05-11T08:15:06.041Z,23.64
2018-05-11T08:17:32.019Z,23.63
2018-05-11T08:19:58.011Z,23.62
2018-05-11T08:22:24.002Z,23.63
2018-05-11T08:24:50.064Z,23.63
2018-05-11T08:27:16.007Z,23.62
2018-05-11T08:29:42.012Z,23.63
2018-05-11T08:32:07.960Z,23.63
2018-05-11T08:34:33.946Z,23.63
2018-05-11T08:36:59.924Z,23.63
2018-05-11T08:39:25.905Z,23.62
2018-05-11T08:41:51.892Z,23.62
2018-05-11T08:44:17.907Z,23.62
2018-05-11T08:46:43.898Z,23.62
2018-05-11T08:49:09.882Z,23.61
2018-05-11T08:51:35.855Z,23.61
2018-05-11T08:54:01.864Z,23.61
2018-05-11T08:56:27.811Z,23.62
2018-05-11T08:58:53.796Z,23.62
2018-05-11T09:01:19.801Z,23.62
2018-05-11T09:03:45.780Z,23.61
2018-05-11T09:06:11.767Z,23.61
2018-05-11T09:08:37.813Z,23.62
2018-05-11T09:11:03.744Z,23.61
2018-05-11T09:13:29.765Z,23.61
2018-05-11T09:15:55.772Z,23.61
2018-05-11T09:18:21.722Z,23.60
2018-05-11T09:20:47.764Z,23.60
2018-05-11T09:23:13.710Z,23.60
2018-05-11T09:25:39.698Z,23.60
2018-05-11T09:28:05.706Z,23.60
2018-05-11T09:30:31.744Z,23.61
2018-05-11T09:32:57.728Z,23.61
2018-05-11T09:35:23.672Z,23.61
2018-05-11T09:37:49.675Z,23.61
2018-05-11T09:40:15.696Z,23.60
2018-05-11T09:42:41.642Z,23.62
2018-05-11T09:45:07.625Z,23.63
2018-05-11T09:47:33.654Z,23.62
2018-05-11T09:49:59.646Z,23.63
2018-05-11T09:52:25.658Z,23.63
2018-05-11T09:54:51.633Z,23.63
2018-05-11T09:57:17.644Z,23.63
2018-05-11T09:59:43.618Z,23.63
2018-05-11T10:02:09.661Z,23.62
2018-05-11T10:04:35.644Z,23.61
2018-05-11T10:07:01.669Z,23.62
2018-05-11T10:09:27.648Z,23.63
2018-05-11T10:11:53.597Z,23.64
2018-05-11T10:14:19.582Z,23.64
2018-05-11T10:16:45.583Z,23.63
2018-05-11T10:19:11.555Z,23.62
2018-05-11T10:21:37.572Z,23.63
2018-05-11T10:24:03.553Z,23.62
2018-05-11T10:26:29.543Z,23.62
2018-05-11T10:28:55.541Z,23.62
2018-05-11T10:31:21.477Z,23.62
2018-05-11T10:33:47.451Z,23.61
2018-05-11T10:36:13.448Z,23.64
2018-05-11T10:38:39.432Z,23.63
2018-05-11T10:41:05.456Z,23.65
2018-05-11T10:43:31.435Z,23.64
2018-05-11T10:45:57.641Z,23.67
2018-05-11T10:48:23.659Z,23.67
2018-05-11T10:50:49.607Z,23.68
2018-05-11T10:53:15.617Z,23.70
2018-05-11T10:55:41.597Z,23.68
2018-05-11T10:58:07.586Z,23.69
2018-05-11T11:00:33.607Z,23.68
2018-05-11T11:02:59.586Z,23.70
2018-05-11T11:05:25.613Z,23.70
2018-05-11T11:07:51.600Z,23.71
2018-05-11T11:10:17.551Z,23.70
2018-05-11T11:12:43.541Z,23.72
2018-05-11T11:15:09.551Z,23.75
2018-05-11T11:17:35.496Z,23.73
2018-05-11T11:20:01.579Z,23.72
2018-05-11T11:22:27.480Z,23.70
2018-05-11T11:24:53.464Z,23.68
2018-05-11T11:27:19.463Z,23.69
2018-05-11T11:29:45.447Z,23.69
2018-05-11T11:32:11.456Z,23.68
2018-05-11T11:34:37.508Z,23.69
2018-05-11T11:37:03.515Z,23.67
2018-05-11T11:39:29.505Z,23.66
2018-05-11T11:41:55.582Z,23.67
2018-05-11T11:44:21.504Z,23.67
2018-05-11T11:46:47.511Z,23.67
2018-05-11T11:49:13.485Z,23.67
2018-05-11T11:51:39.472Z,23.66
2018-05-11T11:54:05.459Z,23.67
2018-05-11T11:56:31.513Z,23.67
2018-05-11T11:58:57.444Z,23.67
2018-05-11T12:01:23.434Z,23.67
2018-05-11T12:03:49.456Z,23.66
2018-05-11T12:06:15.485Z,23.65
2018-05-11T12:08:41.431Z,23.63
2018-05-11T12:11:07.415Z,23.65
2018-05-11T12:13:33.437Z,23.64
2018-05-11T12:15:59.397Z,23.67
2018-05-11T12:18:25.381Z,23.68
2018-05-11T12:20:51.366Z,23.69
2018-05-11T12:23:17.408Z,23.71
2018-05-11T12:25:43.414Z,23.70
2018-05-11T12:28:09.394Z,23.72
2018-05-11T12:30:35.347Z,23.73
2018-05-11T12:33:01.369Z,23.74
2018-05-11T12:35:27.310Z,23.77
2018-05-11T12:37:53.320Z,23.76
2018-05-11T12:40:19.340Z,23.77
2018-05-11T12:42:45.291Z,23.76
2018-05-11T12:45:11.384Z,23.73
2018-05-11T12:47:37.400Z,23.72
2018-05-11T12:50:03.418Z,23.76
2018-05-11T12:52:29.394Z,23.71
2018-05-11T12:54:55.408Z,23.69
2018-05-11T12:57:21.406Z,23.68
2018-05-11T12:59:47.391Z,23.68
2018-05-11T13:02:13.385Z,23.71
2018-05-11T13:04:39.396Z,23.70
2018-05-11T13:07:05.457Z,23.70
2018-05-11T13:09:31.400Z,23.68
2018-05-11T13:11:57.381Z,23.72
2018-05-11T13:14:23.398Z,23.76
2018-05-11T13:16:49.364Z,23.76
2018-05-11T13:19:15.347Z,23.72
2018-05-11T13:21:41.329Z,23.76
2018-05-11T13:24:07.352Z,23.77
2018-05-11T13:26:33.339Z,23.77
2018-05-11T13:28:59.371Z,23.78
2018-05-11T13:31:25.439Z,23.74
2018-05-11T13:33:51.440Z,23.76
2018-05-11T13:36:17.454Z,23.76
2018-05-11T13:38:43.446Z,23.73
2018-05-11T13:41:09.420Z,23.73
2018-05-11T13:43:35.463Z,23.77
2018-05-11T13:46:01.508Z,23.72
2018-05-11T13:48:27.542Z,23.75
2018-05-11T13:50:53.514Z,23.71
2018-05-11T13:53:19.492Z,23.75
2018-05-11T13:55:45.509Z,23.76
2018-05-11T13:58:11.487Z,23.80
2018-05-11T14:00:37.501Z,23.85
2018-05-11T14:03:03.460Z,23.86
2018-05-11T14:05:29.490Z,23.89
2018-05-11T14:07:55.464Z,23.87
2018-05-11T14:10:21.521Z,23.81
2018-05-11T14:12:48.037Z,23.82
2018-05-11T14:15:14.777Z,23.80
2018-05-11T14:17:40.803Z,23.83
2018-05-11T14:20:06.763Z,23.83
2018-05-11T14:22:32.796Z,23.84
2018-05-11T14:24:58.843Z,23.84
2018-05-11T14:27:24.741Z,23.86
2018-05-11T14:29:50.753Z,23.83
2018-05-11T14:32:16.736Z,23.85
2018-05-11T14:34:42.739Z,23.86
2018-05-11T14:37:08.750Z,23.88
2018-05-11T14:39:34.851Z,23.88
2018-05-11T14:42:00.834Z,23.88
2018-05-11T14:44:26.837Z,23.87
2018-05-11T14:46:52.870Z,23.89
2018-05-11T14:49:18.860Z,23.92
2018-05-11T14:51:44.841Z,23.89
2018-05-11T14:54:10.836Z,23.90
2018-05-11T14:56:36.815Z,23.91
2018-05-11T14:59:02.827Z,23.93
2018-05-11T15:01:28.837Z,23.95
2018-05-11T15:03:54.791Z,23.95
2018-05-11T15:06:20.917Z,23.96
2018-05-11T15:08:46.936Z,23.93
2018-05-11T15:11:12.931Z,23.92
2018-05-11T15:13:38.934Z,23.90
2018-05-11T15:16:04.925Z,23.92
2018-05-11T15:18:31.046Z,23.96
2018-05-11T15:20:57.034Z,23.96
2018-05-11T15:23:23.022Z,23.96
2018-05-11T15:25:49.037Z,23.98
2018-05-11T15:28:15.041Z,23.96
2018-05-11T15:30:41.024Z,23.96
2018-05-11T15:33:07.041Z,23.98
2018-05-11T15:35:33.026Z,23.94
2018-05-11T15:37:59.052Z,23.94
2018-05-11T15:40:25.024Z,23.93
2018-05-11T15:42:51.028Z,23.94
2018-05-11T15:45:17.078Z,23.94
2018-05-11T15:47:43.045Z,23.97
2018-05-11T15:50:09.034Z,23.96
2018-05-11T15:52:35.078Z,23.99
2018-05-11T15:55:01.070Z,23.99
2018-05-11T15:57:27.036Z,23.98
2018-05-11T15:59:53.046Z,24.00
2018-05-11T16:02:19.018Z,24.02
2018-05-11T16:04:45.559Z,23.97
2018-05-11T16:07:11.533Z,24.00
2018-05-11T16:09:37.508Z,24.03
2018-05-11T16:12:03.499Z,24.04
2018-05-11T16:14:29.743Z,24.00
2018-05-11T16:16:55.598Z,24.02
2018-05-11T16:19:21.584Z,24.01
2018-05-11T16:21:47.725Z,24.00
2018-05-11T16:24:13.738Z,24.02
2018-05-11T16:26:39.704Z,24.07
2018-05-11T16:29:05.781Z,24.08
2018-05-11T16:31:32.041Z,24.09
2018-05-11T16:33:58.846Z,24.09
2018-05-11T16:36:27.318Z,24.04
2018-05-11T16:38:53.306Z,24.06
2018-05-11T16:41:19.639Z,24.05
2018-05-11T16:43:45.781Z,24.02
2018-05-11T16:46:11.986Z,24.01
2018-05-11T16:48:38.668Z,24.01
2018-05-11T16:51:04.793Z,24.00
2018-05-11T16:53:30.955Z,23.99
2018-05-11T16:55:56.981Z,23.99
2018-05-11T16:58:22.966Z,24.00
2018-05-11T17:00:49.335Z,23.98
2018-05-11T17:03:15.315Z,23.96
2018-05-11T17:05:41.259Z,23.97
2018-05-11T17:08:08.344Z,23.93
2018-05-11T17:10:34.361Z,23.92
2018-05-11T17:13:00.363Z,23.92
2018-05-11T17:15:26.341Z,23.90
2018-05-11T17:17:52.331Z,23.92
2018-05-11T17:20:18.320Z,23.96
2018-05-11T17:22:44.358Z,23.95
2018-05-11T17:25:10.325Z,23.98
2018-05-11T17:27:36.323Z,23.98
2018-05-11T17:30:02.354Z,23.96
2018-05-11T17:32:28.292Z,23.98
2018-05-11T17:34:54.306Z,23.99
2018-05-11T17:37:20.260Z,23.96
2018-05-11T17:39:46.464Z,23.99
2018-05-11T17:42:12.432Z,24.00
2018-05-11T17:44:38.481Z,23.97
2018-05-11T17:47:04.465Z,23.97
2018-05-11T17:49:30.428Z,23.93
2018-05-11T17:51:59.488Z,23.94
2018-05-11T17:54:25.463Z,23.95
2018-05-11T17:56:51.478Z,23.94
2018-05-11T17:59:17.446Z,23.93
2018-05-11T18:01:43.492Z,23.93
2018-05-11T18:04:09.504Z,23.94
2018-05-11T18:06:35.602Z,23.93
2018-05-11T18:09:01.526Z,23.93
2018-05-11T18:11:27.516Z,23.91
2018-05-11T18:13:53.468Z,23.96
2018-05-11T18:16:19.450Z,23.92
2018-05-11T18:18:45.448Z,23.89
2018-05-11T18:21:11.464Z,23.90
2018-05-11T18:23:37.418Z,23.89
2018-05-11T18:26:03.401Z,23.91
2018-05-11T18:28:29.409Z,23.89
2018-05-11T18:30:55.402Z,23.87
2018-05-11T18:33:21.365Z,23.84
2018-05-11T18:35:47.405Z,23.83
2018-05-11T18:38:13.381Z,23.84
2018-05-11T18:40:39.403Z,23.85
2018-05-11T18:43:05.422Z,23.89
2018-05-11T18:45:31.506Z,23.90
2018-05-11T18:47:57.467Z,23.89
2018-05-11T18:50:23.511Z,23.92
2018-05-11T18:52:49.492Z,23.92
2018-05-11T18:55:15.462Z,23.91
2018-05-11T18:57:41.444Z,23.91
2018-05-11T19:00:07.426Z,23.94
2018-05-11T19:02:33.446Z,23.94
2018-05-11T19:04:59.399Z,23.90
2018-05-11T19:07:25.415Z,23.91
2018-05-11T19:09:51.394Z,23.91
2018-05-11T19:12:17.410Z,23.91
2018-05-11T19:14:43.396Z,23.89
2018-05-11T19:17:09.403Z,23.94
2018-05-11T19:19:35.408Z,23.96
2018-05-11T19:22:01.388Z,23.97
2018-05-11T19:24:27.394Z,23.96
2018-05-11T19:26:53.375Z,23.97
2018-05-11T19:29:19.361Z,23.94
2018-05-11T19:31:45.393Z,23.96
2018-05-11T19:34:11.403Z,23.96
2018-05-11T19:36:37.379Z,23.94
2018-05-11T19:39:03.364Z,23.96
2018-05-11T19:41:29.501Z,23.97
2018-05-11T19:43:55.479Z,23.95
2018-05-11T19:46:21.531Z,23.95
2018-05-11T19:48:47.512Z,23.97
2018-05-11T19:51:13.528Z,23.94
2018-05-11T19:53:39.487Z,23.95
2018-05-11T19:56:05.552Z,23.94
2018-05-11T19:58:31.489Z,23.91
2018-05-11T20:00:57.474Z,23.91
2018-05-11T20:03:23.482Z,23.94
2018-05-11T20:05:49.482Z,23.93
2018-05-11T20:08:15.440Z,23.92
2018-05-11T20:10:41.425Z,23.91
2018-05-11T20:13:07.450Z,23.91
2018-05-11T20:15:33.443Z,23.91
2018-05-11T20:17:59.427Z,23.93
2018-05-11T20:20:25.442Z,23.94
2018-05-11T20:22:51.396Z,23.92
2018-05-11T20:25:17.389Z,23.94
2018-05-11T20:27:43.401Z,23.95
2018-05-11T20:30:09.361Z,23.96
2018-05-11T20:32:35.435Z,23.94
2018-05-11T20:35:01.375Z,23.90
2018-05-11T20:37:27.417Z,23.87
2018-05-11T20:39:53.356Z,23.86
2018-05-11T20:42:19.373Z,23.84
2018-05-11T20:44:45.360Z,23.84
2018-05-11T20:47:11.374Z,23.84
2018-05-11T20:49:37.341Z,23.83
2018-05-11T20:52:03.329Z,23.82
2018-05-11T20:54:29.318Z,23.81
2018-05-11T20:56:55.295Z,23.81
2018-05-11T20:59:21.320Z,23.80
2018-05-11T21:01:47.309Z,23.80
2018-05-11T21:04:13.284Z,23.80
2018-05-11T21:06:39.267Z,23.79
2018-05-11T21:09:05.279Z,23.79
2018-05-11T21:11:31.264Z,23.78
2018-05-11T21:13:57.209Z,23.77
2018-05-11T21:16:23.218Z,23.78
2018-05-11T21:18:49.177Z,23.76
2018-05-11T21:21:15.163Z,23.78
2018-05-11T21:23:41.146Z,23.75
2018-05-11T21:26:07.131Z,23.75
2018-05-11T21:28:33.109Z,23.75
2018-05-11T21:30:59.091Z,23.74
2018-05-11T21:33:25.169Z,23.74
2018-05-11T21:35:51.112Z,23.74
2018-05-11T21:38:17.092Z,23.73
2018-05-11T21:40:43.036Z,23.73
2018-05-11T21:43:09.063Z,23.71
2018-05-11T21:45:35.039Z,23.71
2018-05-11T21:48:01.023Z,23.70
2018-05-11T21:50:27.035Z,23.70
2018-05-11T21:52:52.999Z,23.69
2018-05-11T21:55:18.985Z,23.69
2018-05-11T21:57:45.001Z,23.69
2018-05-11T22:00:10.955Z,23.69
2018-05-11T22:02:36.964Z,23.68
2018-05-11T22:05:02.954Z,23.68
2018-05-11T22:07:28.938Z,23.67
2018-05-11T22:09:54.927Z,23.67
2018-05-11T22:12:20.904Z,23.67
2018-05-11T22:14:46.919Z,23.66
2018-05-11T22:17:12.873Z,23.67
2018-05-11T22:19:38.855Z,23.66
2018-05-11T22:22:04.865Z,23.65
2018-05-11T22:24:30.842Z,23.65
2018-05-11T22:26:56.852Z,23.65
2018-05-11T22:29:22.796Z,23.65
2018-05-11T22:31:48.783Z,23.64
2018-05-11T22:34:14.799Z,23.64
2018-05-11T22:36:40.813Z,23.64
2018-05-11T22:39:06.772Z,23.63
2018-05-11T22:41:32.754Z,23.63
2018-05-11T22:43:58.764Z,23.62
2018-05-11T22:46:24.715Z,23.62
2018-05-11T22:48:50.698Z,23.62
2018-05-11T22:51:16.684Z,23.61
2018-05-11T22:53:42.657Z,23.61
2018-05-11T22:56:08.665Z,23.61
2018-05-11T22:58:34.616Z,23.60
2018-05-11T23:01:00.644Z,23.60
2018-05-11T23:03:26.615Z,23.60
2018-05-11T23:05:52.570Z,23.59
2018-05-11T23:08:18.550Z,23.59
2018-05-11T23:10:44.529Z,23.60
2018-05-11T23:13:10.550Z,23.59
2018-05-11T23:15:36.540Z,23.58
2018-05-11T23:18:02.490Z,23.59
2018-05-11T23:20:28.467Z,23.59
2018-05-11T23:22:54.487Z,23.58
2018-05-11T23:25:20.462Z,23.58
2018-05-11T23:27:46.523Z,23.57
2018-05-11T23:30:12.458Z,23.57
2018-05-11T23:32:38.435Z,23.57
2018-05-11T23:35:04.490Z,23.57
2018-05-11T23:37:30.457Z,23.56
2018-05-11T23:39:56.402Z,23.56
2018-05-11T23:42:22.654Z,23.56
2018-05-11T23:44:48.640Z,23.56
2018-05-11T23:47:14.598Z,23.56
2018-05-11T23:49:40.632Z,23.56
2018-05-11T23:52:06.583Z,23.55
2018-05-11T23:54:32.532Z,23.55
2018-05-11T23:56:58.520Z,23.54
2018-05-11T23:59:24.499Z,23.54
